sensor_id;sensor_type;location;lat;lon;timestamp;P1;durP1;ratioP1;P2;durP2;ratioP2
15271;SDS011;7737;51.578;7.268;2024-03-25T05:48:09;26.58;;;7.93;;
15271;SDS011;7737;51.578;7.268;2024-03-25T05:50:34;29.77;;;8.38;;
15271;SDS011;7737;51.578;7.268;2024-03-25T05:53:00;27.17;;;8.65;;
15271;SDS011;7737;51.578;7.268;2024-03-25T05:55:26;25.33;;;8.45;;
15271;SDS011;7737;51.578;7.268;2024-03-25T05:57:51;29.98;;;8.75;;
15271;SDS011;7737;51.578;7.268;2024-03-25T06:00:17;21.57;;;7.53;;
15271;SDS011;7737;51.578;7.268;2024-03-25T06:02:43;27.27;;;9.27;;
15271;SDS011;7737;51.578;7.268;2024-03-25T06:05:10;27.67;;;8.80;;
15271;SDS011;7737;51.578;7.268;2024-03-25T06:07:35;23.50;;;8.87;;
15271;SDS011;7737;51.578;7.268;2024-03-25T06:10:01;19.50;;;8.48;;
15271;SDS011;7737;51.578;7.268;2024-03-25T06:12:26;27.02;;;8.13;;
15271;SDS011;7737;51.578;7.268;2024-03-25T06:14:52;33.37;;;9.73;;
15271;SDS011;7737;51.578;7.268;2024-03-25T06:17:18;28.83;;;8.73;;
15271;SDS011;7737;51.578;7.268;2024-03-25T06:19:43;25.88;;;8.50;;
15271;SDS011;7737;51.578;7.268;2024-03-25T06:22:10;28.77;;;9.20;;
15271;SDS011;7737;51.578;7.268;2024-03-25T06:24:36;25.67;;;8.80;;
15271;SDS011;7737;51.578;7.268;2024-03-25T06:33:45;26.52;;;9.15;;
15271;SDS011;7737;51.578;7.268;2024-03-25T07:17:41;22.40;;;9.47;;
15271;SDS011;7737;51.578;7.268;2024-03-25T07:20:08;22.10;;;9.47;;
15271;SDS011;7737;51.578;7.268;2024-03-25T07:22:34;21.60;;;9.43;;
15271;SDS011;7737;51.578;7.268;2024-03-25T07:24:59;25.40;;;9.13;;
15271;SDS011;7737;51.578;7.268;2024-03-25T07:27:25;24.55;;;9.27;;
15271;SDS011;7737;51.578;7.268;2024-03-25T07:29:51;25.37;;;9.87;;
15271;SDS011;7737;51.578;7.268;2024-03-25T07:32:16;25.27;;;9.27;;
15271;SDS011;7737;51.578;7.268;2024-03-25T07:34:43;21.80;;;8.60;;
15271;SDS011;7737;51.578;7.268;2024-03-25T07:37:09;25.27;;;9.95;;
15271;SDS011;7737;51.578;7.268;2024-03-25T07:39:34;24.17;;;9.52;;
15271;SDS011;7737;51.578;7.268;2024-03-25T07:42:00;27.23;;;9.32;;
15271;SDS011;7737;51.578;7.268;2024-03-25T07:44:26;24.00;;;8.80;;
15271;SDS011;7737;51.578;7.268;2024-03-25T07:46:51;23.52;;;8.93;;
15271;SDS011;7737;51.578;7.268;2024-03-25T07:49:17;27.77;;;8.52;;
15271;SDS011;7737;51.578;7.268;2024-03-25T07:51:44;28.52;;;8.52;;
15271;SDS011;7737;51.578;7.268;2024-03-25T07:54:09;27.35;;;9.10;;
15271;SDS011;7737;51.578;7.268;2024-03-25T07:56:35;26.40;;;8.32;;
15271;SDS011;7737;51.578;7.268;2024-03-25T07:59:01;24.40;;;8.10;;
15271;SDS011;7737;51.578;7.268;2024-03-25T08:01:27;28.63;;;8.10;;
15271;SDS011;7737;51.578;7.268;2024-03-25T08:03:52;21.20;;;8.70;;
15271;SDS011;7737;51.578;7.268;2024-03-25T08:06:18;22.90;;;8.85;;
15271;SDS011;7737;51.578;7.268;2024-03-25T08:08:45;20.80;;;8.00;;
15271;SDS011;7737;51.578;7.268;2024-03-25T08:11:11;26.48;;;8.18;;
15271;SDS011;7737;51.578;7.268;2024-03-25T08:13:36;26.88;;;8.75;;
15271;SDS011;7737;51.578;7.268;2024-03-25T08:16:02;20.55;;;8.50;;
15271;SDS011;7737;51.578;7.268;2024-03-25T08:18:28;21.88;;;8.00;;
15271;SDS011;7737;51.578;7.268;2024-03-25T08:20:54;20.50;;;7.93;;
15271;SDS011;7737;51.578;7.268;2024-03-25T08:23:20;22.38;;;7.95;;
15271;SDS011;7737;51.578;7.268;2024-03-25T08:25:47;22.98;;;7.78;;
15271;SDS011;7737;51.578;7.268;2024-03-25T08:28:12;20.77;;;7.25;;
15271;SDS011;7737;51.578;7.268;2024-03-25T08:30:38;20.88;;;7.00;;
15271;SDS011;7737;51.578;7.268;2024-03-25T08:33:04;20.58;;;7.97;;
15271;SDS011;7737;51.578;7.268;2024-03-25T08:35:29;19.13;;;7.07;;
15271;SDS011;7737;51.578;7.268;2024-03-25T08:37:55;21.10;;;7.47;;
15271;SDS011;7737;51.578;7.268;2024-03-25T08:40:21;17.67;;;6.40;;
15271;SDS011;7737;51.578;7.268;2024-03-25T08:42:48;23.05;;;7.30;;
15271;SDS011;7737;51.578;7.268;2024-03-25T08:45:13;18.33;;;6.68;;
15271;SDS011;7737;51.578;7.268;2024-03-25T08:47:39;20.25;;;6.57;;
15271;SDS011;7737;51.578;7.268;2024-03-25T08:50:05;16.65;;;6.25;;
15271;SDS011;7737;51.578;7.268;2024-03-25T08:52:31;16.63;;;6.05;;
15271;SDS011;7737;51.578;7.268;2024-03-25T08:54:57;20.00;;;5.60;;
15271;SDS011;7737;51.578;7.268;2024-03-25T08:57:22;18.90;;;4.88;;
15271;SDS011;7737;51.578;7.268;2024-03-25T08:59:49;15.55;;;3.70;;
15271;SDS011;7737;51.578;7.268;2024-03-25T09:02:15;12.85;;;3.90;;
15271;SDS011;7737;51.578;7.268;2024-03-25T09:04:41;18.38;;;4.70;;
15271;SDS011;7737;51.578;7.268;2024-03-25T09:07:06;11.63;;;3.15;;
15271;SDS011;7737;51.578;7.268;2024-03-25T09:09:32;15.30;;;4.53;;
15271;SDS011;7737;51.578;7.268;2024-03-25T09:12:16;12.30;;;4.00;;
15271;SDS011;7737;51.578;7.268;2024-03-25T09:14:42;12.93;;;3.83;;
15271;SDS011;7737;51.578;7.268;2024-03-25T09:17:09;11.05;;;3.55;;
15271;SDS011;7737;51.578;7.268;2024-03-25T09:19:34;13.23;;;4.18;;
15271;SDS011;7737;51.578;7.268;2024-03-25T09:22:00;10.40;;;2.95;;
15271;SDS011;7737;51.578;7.268;2024-03-25T09:24:26;16.83;;;3.35;;
15271;SDS011;7737;51.578;7.268;2024-03-25T09:26:51;11.68;;;3.08;;
15271;SDS011;7737;51.578;7.268;2024-03-25T09:29:17;13.27;;;3.08;;
15271;SDS011;7737;51.578;7.268;2024-03-25T09:31:43;11.10;;;2.90;;
15271;SDS011;7737;51.578;7.268;2024-03-25T09:34:10;11.15;;;3.53;;
15271;SDS011;7737;51.578;7.268;2024-03-25T09:36:35;11.05;;;3.75;;
15271;SDS011;7737;51.578;7.268;2024-03-25T09:39:01;12.43;;;3.58;;
15271;SDS011;7737;51.578;7.268;2024-03-25T09:41:27;11.63;;;3.60;;
15271;SDS011;7737;51.578;7.268;2024-03-25T09:43:55;16.55;;;3.70;;
15271;SDS011;7737;51.578;7.268;2024-03-25T09:46:20;17.13;;;4.10;;
15271;SDS011;7737;51.578;7.268;2024-03-25T09:48:48;12.43;;;3.38;;
15271;SDS011;7737;51.578;7.268;2024-03-25T09:51:15;12.68;;;4.10;;
15271;SDS011;7737;51.578;7.268;2024-03-25T09:53:41;13.52;;;3.72;;
15271;SDS011;7737;51.578;7.268;2024-03-25T09:56:07;14.27;;;3.58;;
15271;SDS011;7737;51.578;7.268;2024-03-25T09:58:34;11.93;;;4.13;;
15271;SDS011;7737;51.578;7.268;2024-03-25T10:00:59;15.93;;;4.10;;
15271;SDS011;7737;51.578;7.268;2024-03-25T10:03:25;12.45;;;3.80;;
15271;SDS011;7737;51.578;7.268;2024-03-25T10:05:51;11.90;;;3.90;;
15271;SDS011;7737;51.578;7.268;2024-03-25T10:08:21;14.57;;;3.75;;
15271;SDS011;7737;51.578;7.268;2024-03-25T10:10:46;14.60;;;5.10;;
15271;SDS011;7737;51.578;7.268;2024-03-25T10:13:12;12.43;;;4.20;;
15271;SDS011;7737;51.578;7.268;2024-03-25T10:15:38;12.75;;;4.25;;
15271;SDS011;7737;51.578;7.268;2024-03-25T10:18:03;12.18;;;3.00;;
15271;SDS011;7737;51.578;7.268;2024-03-25T10:20:29;8.88;;;2.88;;
15271;SDS011;7737;51.578;7.268;2024-03-25T10:22:55;10.00;;;3.05;;
15271;SDS011;7737;51.578;7.268;2024-03-25T10:25:23;11.40;;;2.83;;
15271;SDS011;7737;51.578;7.268;2024-03-25T10:27:52;10.27;;;2.85;;
15271;SDS011;7737;51.578;7.268;2024-03-25T10:30:19;10.35;;;3.03;;
15271;SDS011;7737;51.578;7.268;2024-03-25T10:32:45;8.75;;;3.00;;
15271;SDS011;7737;51.578;7.268;2024-03-25T10:35:10;12.80;;;2.85;;
15271;SDS011;7737;51.578;7.268;2024-03-25T10:37:38;8.50;;;2.75;;
15271;SDS011;7737;51.578;7.268;2024-03-25T10:40:04;9.15;;;2.28;;
15271;SDS011;7737;51.578;7.268;2024-03-25T10:42:37;7.30;;;2.13;;
15271;SDS011;7737;51.578;7.268;2024-03-25T10:45:07;8.00;;;2.80;;
15271;SDS011;7737;51.578;7.268;2024-03-25T10:47:34;6.95;;;2.17;;
15271;SDS011;7737;51.578;7.268;2024-03-25T10:50:01;6.80;;;2.30;;
15271;SDS011;7737;51.578;7.268;2024-03-25T10:52:34;9.60;;;2.53;;
15271;SDS011;7737;51.578;7.268;2024-03-25T10:55:01;10.65;;;2.70;;
15271;SDS011;7737;51.578;7.268;2024-03-25T10:57:27;8.85;;;3.08;;
15271;SDS011;7737;51.578;7.268;2024-03-25T10:59:55;7.55;;;2.80;;
15271;SDS011;7737;51.578;7.268;2024-03-25T11:02:22;7.45;;;2.63;;
15271;SDS011;7737;51.578;7.268;2024-03-25T11:04:49;10.18;;;2.38;;
15271;SDS011;7737;51.578;7.268;2024-03-25T11:07:24;12.07;;;2.80;;
15271;SDS011;7737;51.578;7.268;2024-03-25T11:10:01;8.60;;;2.60;;
15271;SDS011;7737;51.578;7.268;2024-03-25T11:12:31;9.30;;;2.45;;
15271;SDS011;7737;51.578;7.268;2024-03-25T11:15:00;10.27;;;3.08;;
15271;SDS011;7737;51.578;7.268;2024-03-25T11:17:27;6.60;;;2.80;;
15271;SDS011;7737;51.578;7.268;2024-03-25T11:19:53;7.88;;;2.50;;
15271;SDS011;7737;51.578;7.268;2024-03-25T11:22:23;8.05;;;2.47;;
15271;SDS011;7737;51.578;7.268;2024-03-25T11:24:50;7.72;;;2.95;;
15271;SDS011;7737;51.578;7.268;2024-03-25T11:27:20;6.80;;;2.78;;
15271;SDS011;7737;51.578;7.268;2024-03-25T11:29:47;8.43;;;2.45;;
15271;SDS011;7737;51.578;7.268;2024-03-25T11:32:14;6.93;;;2.40;;
15271;SDS011;7737;51.578;7.268;2024-03-25T11:34:49;10.40;;;2.60;;
15271;SDS011;7737;51.578;7.268;2024-03-25T11:37:15;10.07;;;2.40;;
15271;SDS011;7737;51.578;7.268;2024-03-25T11:39:41;6.18;;;2.53;;
15271;SDS011;7737;51.578;7.268;2024-03-25T11:42:07;6.55;;;2.35;;
15271;SDS011;7737;51.578;7.268;2024-03-25T11:44:35;7.47;;;2.90;;
15271;SDS011;7737;51.578;7.268;2024-03-25T11:47:01;7.28;;;2.47;;
15271;SDS011;7737;51.578;7.268;2024-03-25T11:49:29;5.85;;;2.72;;
15271;SDS011;7737;51.578;7.268;2024-03-25T11:51:54;7.05;;;2.45;;
15271;SDS011;7737;51.578;7.268;2024-03-25T11:54:20;8.15;;;2.92;;
15271;SDS011;7737;51.578;7.268;2024-03-25T11:56:46;9.80;;;2.70;;
15271;SDS011;7737;51.578;7.268;2024-03-25T11:59:12;5.80;;;2.40;;
15271;SDS011;7737;51.578;7.268;2024-03-25T12:01:38;7.60;;;2.40;;
15271;SDS011;7737;51.578;7.268;2024-03-25T12:04:09;9.43;;;2.80;;
15271;SDS011;7737;51.578;7.268;2024-03-25T12:06:36;6.57;;;2.38;;
15271;SDS011;7737;51.578;7.268;2024-03-25T12:09:02;5.47;;;2.50;;
15271;SDS011;7737;51.578;7.268;2024-03-25T12:11:46;6.22;;;2.45;;
15271;SDS011;7737;51.578;7.268;2024-03-25T12:14:12;6.03;;;2.15;;
15271;SDS011;7737;51.578;7.268;2024-03-25T12:16:38;8.27;;;2.30;;
15271;SDS011;7737;51.578;7.268;2024-03-25T12:19:05;6.63;;;2.15;;
15271;SDS011;7737;51.578;7.268;2024-03-25T12:21:31;4.93;;;2.28;;
15271;SDS011;7737;51.578;7.268;2024-03-25T12:23:58;4.97;;;2.30;;
15271;SDS011;7737;51.578;7.268;2024-03-25T12:26:24;7.80;;;2.25;;
15271;SDS011;7737;51.578;7.268;2024-03-25T12:28:50;7.45;;;1.95;;
15271;SDS011;7737;51.578;7.268;2024-03-25T12:31:17;5.82;;;1.80;;
15271;SDS011;7737;51.578;7.268;2024-03-25T12:33:43;6.97;;;2.30;;
15271;SDS011;7737;51.578;7.268;2024-03-25T12:36:09;6.90;;;2.22;;
15271;SDS011;7737;51.578;7.268;2024-03-25T12:38:37;8.90;;;2.13;;
15271;SDS011;7737;51.578;7.268;2024-03-25T12:41:06;5.43;;;2.17;;
15271;SDS011;7737;51.578;7.268;2024-03-25T12:43:33;6.38;;;2.05;;
15271;SDS011;7737;51.578;7.268;2024-03-25T12:46:00;7.55;;;2.10;;
15271;SDS011;7737;51.578;7.268;2024-03-25T12:48:26;5.25;;;1.83;;
15271;SDS011;7737;51.578;7.268;2024-03-25T12:50:52;6.18;;;1.83;;
15271;SDS011;7737;51.578;7.268;2024-03-25T12:53:19;5.22;;;1.83;;
15271;SDS011;7737;51.578;7.268;2024-03-25T12:55:45;4.15;;;1.65;;
15271;SDS011;7737;51.578;7.268;2024-03-25T12:58:12;7.68;;;1.75;;
15271;SDS011;7737;51.578;7.268;2024-03-25T13:00:38;7.05;;;2.03;;
15271;SDS011;7737;51.578;7.268;2024-03-25T13:03:04;6.68;;;2.00;;
15271;SDS011;7737;51.578;7.268;2024-03-25T13:07:58;11.15;;;2.28;;
15271;SDS011;7737;51.578;7.268;2024-03-25T13:10:25;6.97;;;1.65;;
15271;SDS011;7737;51.578;7.268;2024-03-25T13:12:53;6.25;;;1.65;;
15271;SDS011;7737;51.578;7.268;2024-03-25T13:15:20;5.43;;;1.70;;
15271;SDS011;7737;51.578;7.268;2024-03-25T13:17:45;8.55;;;2.30;;
15271;SDS011;7737;51.578;7.268;2024-03-25T13:20:11;7.43;;;1.52;;
15271;SDS011;7737;51.578;7.268;2024-03-25T13:22:37;6.75;;;1.60;;
15271;SDS011;7737;51.578;7.268;2024-03-25T13:25:03;7.78;;;1.67;;
15271;SDS011;7737;51.578;7.268;2024-03-25T13:27:29;7.32;;;1.70;;
15271;SDS011;7737;51.578;7.268;2024-03-25T13:29:54;3.97;;;1.48;;
15271;SDS011;7737;51.578;7.268;2024-03-25T13:32:22;4.40;;;1.52;;
15271;SDS011;7737;51.578;7.268;2024-03-25T13:34:48;4.78;;;1.50;;
15271;SDS011;7737;51.578;7.268;2024-03-25T13:37:13;5.72;;;1.50;;
15271;SDS011;7737;51.578;7.268;2024-03-25T13:39:39;6.10;;;1.52;;
15271;SDS011;7737;51.578;7.268;2024-03-25T13:42:05;5.45;;;1.85;;
15271;SDS011;7737;51.578;7.268;2024-03-25T13:44:30;6.80;;;1.63;;
15271;SDS011;7737;51.578;7.268;2024-03-25T13:46:56;6.43;;;1.75;;
15271;SDS011;7737;51.578;7.268;2024-03-25T13:49:23;5.03;;;1.45;;
15271;SDS011;7737;51.578;7.268;2024-03-25T13:51:50;6.07;;;1.52;;
15271;SDS011;7737;51.578;7.268;2024-03-25T13:54:20;4.53;;;1.20;;
15271;SDS011;7737;51.578;7.268;2024-03-25T13:56:46;7.57;;;2.17;;
15271;SDS011;7737;51.578;7.268;2024-03-25T13:59:12;6.07;;;1.67;;
15271;SDS011;7737;51.578;7.268;2024-03-25T14:01:37;6.55;;;1.50;;
15271;SDS011;7737;51.578;7.268;2024-03-25T14:04:03;5.53;;;1.83;;
15271;SDS011;7737;51.578;7.268;2024-03-25T14:06:30;6.00;;;1.58;;
15271;SDS011;7737;51.578;7.268;2024-03-25T14:08:56;4.68;;;1.42;;
15271;SDS011;7737;51.578;7.268;2024-03-25T14:11:22;4.88;;;1.58;;
15271;SDS011;7737;51.578;7.268;2024-03-25T14:13:47;4.10;;;1.27;;
15271;SDS011;7737;51.578;7.268;2024-03-25T14:16:13;6.40;;;1.65;;
15271;SDS011;7737;51.578;7.268;2024-03-25T14:18:39;5.70;;;1.40;;
15271;SDS011;7737;51.578;7.268;2024-03-25T14:21:04;5.35;;;1.50;;
15271;SDS011;7737;51.578;7.268;2024-03-25T14:23:31;5.90;;;1.60;;
15271;SDS011;7737;51.578;7.268;2024-03-25T14:25:57;5.88;;;1.50;;
15271;SDS011;7737;51.578;7.268;2024-03-25T14:28:23;6.25;;;1.88;;
15271;SDS011;7737;51.578;7.268;2024-03-25T14:30:48;2.92;;;1.38;;
15271;SDS011;7737;51.578;7.268;2024-03-25T14:33:14;6.97;;;1.70;;
15271;SDS011;7737;51.578;7.268;2024-03-25T14:35:40;7.63;;;1.55;;
15271;SDS011;7737;51.578;7.268;2024-03-25T14:38:07;6.95;;;1.45;;
15271;SDS011;7737;51.578;7.268;2024-03-25T14:40:37;10.13;;;1.90;;
15271;SDS011;7737;51.578;7.268;2024-03-25T14:43:03;3.65;;;1.30;;
15271;SDS011;7737;51.578;7.268;2024-03-25T14:45:29;5.97;;;1.50;;
15271;SDS011;7737;51.578;7.268;2024-03-25T14:47:54;4.97;;;1.60;;
15271;SDS011;7737;51.578;7.268;2024-03-25T14:50:20;8.55;;;1.90;;
15271;SDS011;7737;51.578;7.268;2024-03-25T14:52:46;5.57;;;1.63;;
15271;SDS011;7737;51.578;7.268;2024-03-25T14:55:11;9.85;;;1.75;;
15271;SDS011;7737;51.578;7.268;2024-03-25T14:57:38;4.97;;;1.27;;
15271;SDS011;7737;51.578;7.268;2024-03-25T15:00:04;6.28;;;1.52;;
15271;SDS011;7737;51.578;7.268;2024-03-25T15:02:31;6.22;;;1.33;;
15271;SDS011;7737;51.578;7.268;2024-03-25T15:04:56;6.20;;;1.75;;
15271;SDS011;7737;51.578;7.268;2024-03-25T15:07:22;3.20;;;1.13;;
15271;SDS011;7737;51.578;7.268;2024-03-25T15:09:48;6.47;;;1.52;;
15271;SDS011;7737;51.578;7.268;2024-03-25T15:12:13;5.13;;;1.58;;
15271;SDS011;7737;51.578;7.268;2024-03-25T15:14:40;6.03;;;1.60;;
15271;SDS011;7737;51.578;7.268;2024-03-25T15:17:06;5.18;;;1.50;;
15271;SDS011;7737;51.578;7.268;2024-03-25T15:19:32;5.03;;;1.45;;
15271;SDS011;7737;51.578;7.268;2024-03-25T15:21:58;2.60;;;1.20;;
15271;SDS011;7737;51.578;7.268;2024-03-25T15:24:24;2.97;;;1.40;;
15271;SDS011;7737;51.578;7.268;2024-03-25T15:26:49;6.53;;;1.60;;
15271;SDS011;7737;51.578;7.268;2024-03-25T15:29:15;6.22;;;1.60;;
15271;SDS011;7737;51.578;7.268;2024-03-25T15:31:42;6.05;;;1.40;;
15271;SDS011;7737;51.578;7.268;2024-03-25T15:34:07;5.10;;;1.50;;
15271;SDS011;7737;51.578;7.268;2024-03-25T15:36:34;4.78;;;1.33;;
15271;SDS011;7737;51.578;7.268;2024-03-25T15:39:00;5.00;;;1.30;;
15271;SDS011;7737;51.578;7.268;2024-03-25T15:41:26;6.22;;;1.65;;
15271;SDS011;7737;51.578;7.268;2024-03-25T15:43:52;5.90;;;1.50;;
15271;SDS011;7737;51.578;7.268;2024-03-25T15:46:17;5.53;;;1.73;;
15271;SDS011;7737;51.578;7.268;2024-03-25T15:48:45;5.88;;;1.42;;
15271;SDS011;7737;51.578;7.268;2024-03-25T15:51:10;6.35;;;1.63;;
15271;SDS011;7737;51.578;7.268;2024-03-25T15:53:36;7.13;;;1.35;;
15271;SDS011;7737;51.578;7.268;2024-03-25T15:56:02;4.15;;;1.40;;
15271;SDS011;7737;51.578;7.268;2024-03-25T15:58:28;4.20;;;1.10;;
15271;SDS011;7737;51.578;7.268;2024-03-25T16:00:54;4.85;;;1.17;;
15271;SDS011;7737;51.578;7.268;2024-03-25T16:03:19;4.30;;;1.10;;
15271;SDS011;7737;51.578;7.268;2024-03-25T16:05:46;6.68;;;1.30;;
15271;SDS011;7737;51.578;7.268;2024-03-25T16:08:12;4.50;;;1.25;;
15271;SDS011;7737;51.578;7.268;2024-03-25T16:10:38;5.95;;;1.13;;
15271;SDS011;7737;51.578;7.268;2024-03-25T16:13:04;7.93;;;1.58;;
15271;SDS011;7737;51.578;7.268;2024-03-25T16:15:30;13.55;;;2.17;;
15271;SDS011;7737;51.578;7.268;2024-03-25T16:17:56;5.35;;;1.70;;
15271;SDS011;7737;51.578;7.268;2024-03-25T16:20:21;5.15;;;1.65;;
15271;SDS011;7737;51.578;7.268;2024-03-25T16:22:49;9.85;;;2.03;;
15271;SDS011;7737;51.578;7.268;2024-03-25T16:25:15;5.57;;;1.42;;
15271;SDS011;7737;51.578;7.268;2024-03-25T16:27:41;7.18;;;1.48;;
15271;SDS011;7737;51.578;7.268;2024-03-25T16:30:07;8.88;;;1.70;;
15271;SDS011;7737;51.578;7.268;2024-03-25T16:32:33;5.57;;;1.60;;
15271;SDS011;7737;51.578;7.268;2024-03-25T16:34:59;5.28;;;1.52;;
15271;SDS011;7737;51.578;7.268;2024-03-25T16:37:25;4.63;;;1.38;;
15271;SDS011;7737;51.578;7.268;2024-03-25T16:39:52;3.92;;;1.70;;
15271;SDS011;7737;51.578;7.268;2024-03-25T16:42:17;5.63;;;1.25;;
15271;SDS011;7737;51.578;7.268;2024-03-25T16:44:43;5.57;;;1.58;;
15271;SDS011;7737;51.578;7.268;2024-03-25T16:47:09;7.63;;;1.77;;
15271;SDS011;7737;51.578;7.268;2024-03-25T16:49:35;6.70;;;1.70;;
15271;SDS011;7737;51.578;7.268;2024-03-25T16:52:00;6.93;;;1.70;;
15271;SDS011;7737;51.578;7.268;2024-03-25T16:54:26;5.22;;;1.65;;
15271;SDS011;7737;51.578;7.268;2024-03-25T16:56:53;5.60;;;1.60;;
15271;SDS011;7737;51.578;7.268;2024-03-25T16:59:18;5.28;;;1.70;;
15271;SDS011;7737;51.578;7.268;2024-03-25T17:01:44;4.93;;;1.48;;
15271;SDS011;7737;51.578;7.268;2024-03-25T17:04:10;5.28;;;1.65;;
15271;SDS011;7737;51.578;7.268;2024-03-25T17:06:35;10.32;;;1.58;;
15271;SDS011;7737;51.578;7.268;2024-03-25T17:09:01;5.57;;;1.35;;
15271;SDS011;7737;51.578;7.268;2024-03-25T17:11:27;7.45;;;1.50;;
15271;SDS011;7737;51.578;7.268;2024-03-25T17:13:54;5.63;;;1.45;;
15271;SDS011;7737;51.578;7.268;2024-03-25T17:16:19;4.10;;;1.10;;
15271;SDS011;7737;51.578;7.268;2024-03-25T17:18:45;4.57;;;1.40;;
15271;SDS011;7737;51.578;7.268;2024-03-25T17:21:11;4.88;;;1.50;;
15271;SDS011;7737;51.578;7.268;2024-03-25T17:23:37;4.63;;;1.60;;
15271;SDS011;7737;51.578;7.268;2024-03-25T17:26:03;5.38;;;1.20;;
15271;SDS011;7737;51.578;7.268;2024-03-25T17:28:29;5.97;;;1.30;;
15271;SDS011;7737;51.578;7.268;2024-03-25T17:30:56;5.10;;;1.80;;
15271;SDS011;7737;51.578;7.268;2024-03-25T17:33:21;4.07;;;1.45;;
15271;SDS011;7737;51.578;7.268;2024-03-25T17:35:47;5.20;;;1.40;;
15271;SDS011;7737;51.578;7.268;2024-03-25T17:38:12;5.95;;;1.73;;
15271;SDS011;7737;51.578;7.268;2024-03-25T17:40:38;6.10;;;1.80;;
15271;SDS011;7737;51.578;7.268;2024-03-25T17:43:04;6.28;;;2.05;;
15271;SDS011;7737;51.578;7.268;2024-03-25T17:45:29;5.60;;;1.48;;
15271;SDS011;7737;51.578;7.268;2024-03-25T17:47:56;6.95;;;1.50;;
15271;SDS011;7737;51.578;7.268;2024-03-25T17:50:22;7.15;;;1.80;;
15271;SDS011;7737;51.578;7.268;2024-03-25T17:52:48;5.95;;;1.80;;
15271;SDS011;7737;51.578;7.268;2024-03-25T17:55:13;7.57;;;1.77;;
15271;SDS011;7737;51.578;7.268;2024-03-25T17:57:39;6.90;;;1.98;;
15271;SDS011;7737;51.578;7.268;2024-03-25T18:00:06;4.85;;;1.88;;
15271;SDS011;7737;51.578;7.268;2024-03-25T18:02:33;6.22;;;2.03;;
15271;SDS011;7737;51.578;7.268;2024-03-25T18:05:00;4.60;;;1.80;;
15271;SDS011;7737;51.578;7.268;2024-03-25T18:07:25;7.55;;;1.95;;
15271;SDS011;7737;51.578;7.268;2024-03-25T18:09:51;7.15;;;2.50;;
15271;SDS011;7737;51.578;7.268;2024-03-25T18:12:17;8.45;;;3.00;;
15271;SDS011;7737;51.578;7.268;2024-03-25T18:14:42;12.90;;;3.50;;
15271;SDS011;7737;51.578;7.268;2024-03-25T18:17:08;8.65;;;2.72;;
15271;SDS011;7737;51.578;7.268;2024-03-25T18:19:34;7.13;;;2.20;;
15271;SDS011;7737;51.578;7.268;2024-03-25T18:22:01;5.53;;;2.30;;
15271;SDS011;7737;51.578;7.268;2024-03-25T18:24:26;7.75;;;2.33;;
15271;SDS011;7737;51.578;7.268;2024-03-25T18:26:52;8.00;;;2.83;;
15271;SDS011;7737;51.578;7.268;2024-03-25T18:29:17;6.18;;;2.40;;
15271;SDS011;7737;51.578;7.268;2024-03-25T18:31:43;7.18;;;2.45;;
15271;SDS011;7737;51.578;7.268;2024-03-25T18:34:09;13.18;;;2.75;;
15271;SDS011;7737;51.578;7.268;2024-03-25T18:36:34;8.85;;;2.42;;
15271;SDS011;7737;51.578;7.268;2024-03-25T18:39:01;10.65;;;3.20;;
15271;SDS011;7737;51.578;7.268;2024-03-25T18:41:27;5.38;;;2.30;;
15271;SDS011;7737;51.578;7.268;2024-03-25T18:43:53;8.70;;;2.47;;
15271;SDS011;7737;51.578;7.268;2024-03-25T18:46:18;8.20;;;2.33;;
15271;SDS011;7737;51.578;7.268;2024-03-25T18:48:44;7.07;;;2.35;;
15271;SDS011;7737;51.578;7.268;2024-03-25T18:51:10;9.50;;;2.22;;
15271;SDS011;7737;51.578;7.268;2024-03-25T18:53:35;7.20;;;2.35;;
15271;SDS011;7737;51.578;7.268;2024-03-25T18:56:02;10.25;;;2.42;;
15271;SDS011;7737;51.578;7.268;2024-03-25T18:58:29;6.30;;;2.08;;
15271;SDS011;7737;51.578;7.268;2024-03-25T19:00:54;16.08;;;2.67;;
15271;SDS011;7737;51.578;7.268;2024-03-25T19:03:20;6.75;;;2.20;;
15271;SDS011;7737;51.578;7.268;2024-03-25T19:05:46;6.50;;;1.90;;
15271;SDS011;7737;51.578;7.268;2024-03-25T19:08:11;15.20;;;2.55;;
15271;SDS011;7737;51.578;7.268;2024-03-25T19:10:37;8.23;;;2.90;;
15271;SDS011;7737;51.578;7.268;2024-03-25T19:13:04;7.40;;;1.98;;
15271;SDS011;7737;51.578;7.268;2024-03-25T19:15:30;8.32;;;2.53;;
15271;SDS011;7737;51.578;7.268;2024-03-25T19:17:55;7.45;;;2.10;;
15271;SDS011;7737;51.578;7.268;2024-03-25T19:20:21;7.45;;;2.40;;
15271;SDS011;7737;51.578;7.268;2024-03-25T19:22:46;7.07;;;2.38;;
15271;SDS011;7737;51.578;7.268;2024-03-25T19:25:12;10.40;;;2.30;;
15271;SDS011;7737;51.578;7.268;2024-03-25T19:27:38;9.02;;;2.35;;
15271;SDS011;7737;51.578;7.268;2024-03-25T19:30:06;8.20;;;2.67;;
15271;SDS011;7737;51.578;7.268;2024-03-25T19:32:33;8.70;;;2.10;;
15271;SDS011;7737;51.578;7.268;2024-03-25T19:34:59;7.05;;;2.60;;
15271;SDS011;7737;51.578;7.268;2024-03-25T19:37:24;9.57;;;2.72;;
15271;SDS011;7737;51.578;7.268;2024-03-25T19:39:50;7.20;;;2.40;;
15271;SDS011;7737;51.578;7.268;2024-03-25T19:42:16;8.27;;;2.72;;
15271;SDS011;7737;51.578;7.268;2024-03-25T19:44:41;9.98;;;2.80;;
15271;SDS011;7737;51.578;7.268;2024-03-25T19:47:08;8.02;;;2.60;;
15271;SDS011;7737;51.578;7.268;2024-03-25T19:49:34;8.30;;;2.30;;
15271;SDS011;7737;51.578;7.268;2024-03-25T19:52:00;6.72;;;2.40;;
15271;SDS011;7737;51.578;7.268;2024-03-25T19:54:25;8.00;;;2.72;;
15271;SDS011;7737;51.578;7.268;2024-03-25T19:56:51;12.27;;;3.17;;
15271;SDS011;7737;51.578;7.268;2024-03-25T19:59:17;9.93;;;2.75;;
15271;SDS011;7737;51.578;7.268;2024-03-25T20:01:42;9.05;;;2.75;;
15271;SDS011;7737;51.578;7.268;2024-03-25T20:04:09;10.77;;;2.90;;
15271;SDS011;7737;51.578;7.268;2024-03-25T20:06:35;8.63;;;2.28;;
15271;SDS011;7737;51.578;7.268;2024-03-25T20:09:01;10.18;;;2.80;;
15271;SDS011;7737;51.578;7.268;2024-03-25T20:11:26;7.75;;;2.60;;
15271;SDS011;7737;51.578;7.268;2024-03-25T20:13:52;10.57;;;2.72;;
15271;SDS011;7737;51.578;7.268;2024-03-25T20:16:17;7.57;;;2.75;;
15271;SDS011;7737;51.578;7.268;2024-03-25T20:18:43;6.07;;;2.92;;
15271;SDS011;7737;51.578;7.268;2024-03-25T20:21:10;6.35;;;2.33;;
15271;SDS011;7737;51.578;7.268;2024-03-25T20:23:36;7.88;;;2.55;;
15271;SDS011;7737;51.578;7.268;2024-03-25T20:26:02;7.32;;;2.28;;
15271;SDS011;7737;51.578;7.268;2024-03-25T20:28:28;8.57;;;2.17;;
15271;SDS011;7737;51.578;7.268;2024-03-25T20:30:55;6.82;;;2.25;;
15271;SDS011;7737;51.578;7.268;2024-03-25T20:33:21;6.22;;;2.40;;
15271;SDS011;7737;51.578;7.268;2024-03-25T20:35:47;6.70;;;2.42;;
15271;SDS011;7737;51.578;7.268;2024-03-25T20:38:14;7.95;;;2.50;;
15271;SDS011;7737;51.578;7.268;2024-03-25T20:40:40;6.10;;;2.30;;
15271;SDS011;7737;51.578;7.268;2024-03-25T20:43:05;7.35;;;2.83;;
15271;SDS011;7737;51.578;7.268;2024-03-25T20:45:31;6.68;;;2.33;;
15271;SDS011;7737;51.578;7.268;2024-03-25T20:47:57;6.38;;;2.25;;
15271;SDS011;7737;51.578;7.268;2024-03-25T20:50:22;7.13;;;2.85;;
15271;SDS011;7737;51.578;7.268;2024-03-25T20:52:48;4.82;;;2.35;;
15271;SDS011;7737;51.578;7.268;2024-03-25T20:55:15;9.32;;;3.00;;
15271;SDS011;7737;51.578;7.268;2024-03-25T20:57:41;9.35;;;2.70;;
15271;SDS011;7737;51.578;7.268;2024-03-25T21:00:07;8.50;;;2.60;;
15271;SDS011;7737;51.578;7.268;2024-03-25T21:02:33;9.82;;;3.03;;
15271;SDS011;7737;51.578;7.268;2024-03-25T21:04:59;7.57;;;3.65;;
15271;SDS011;7737;51.578;7.268;2024-03-25T21:07:24;7.68;;;3.30;;
15271;SDS011;7737;51.578;7.268;2024-03-25T21:09:50;6.88;;;2.97;;
15271;SDS011;7737;51.578;7.268;2024-03-25T21:12:17;8.55;;;3.33;;
15271;SDS011;7737;51.578;7.268;2024-03-25T21:14:43;8.30;;;3.00;;
15271;SDS011;7737;51.578;7.268;2024-03-25T21:17:09;6.63;;;3.30;;
15271;SDS011;7737;51.578;7.268;2024-03-25T21:19:34;7.75;;;3.45;;
15271;SDS011;7737;51.578;7.268;2024-03-25T21:22:00;9.40;;;3.53;;
15271;SDS011;7737;51.578;7.268;2024-03-25T21:24:26;8.57;;;3.60;;
15271;SDS011;7737;51.578;7.268;2024-03-25T21:26:51;9.43;;;3.38;;
15271;SDS011;7737;51.578;7.268;2024-03-25T21:29:18;9.95;;;4.05;;